sensor_id;sensor_type;location;lat;lon;timestamp;P1;durP1;ratioP1;P2;durP2;ratioP2
6386;SDS011;3226;42.162;24.756;2023-03-11T00:00:13;6.13;;;5.93;;
6386;SDS011;3226;42.162;24.756;2023-03-11T00:02:44;7.20;;;6.90;;
6386;SDS011;3226;42.162;24.756;2023-03-11T00:05:13;6.10;;;5.90;;
6386;SDS011;3226;42.162;24.756;2023-03-11T00:07:45;6.23;;;5.93;;
6386;SDS011;3226;42.162;24.756;2023-03-11T00:10:13;6.53;;;6.23;;
6386;SDS011;3226;42.162;24.756;2023-03-11T00:12:42;6.53;;;6.23;;
6386;SDS011;3226;42.162;24.756;2023-03-11T00:15:11;6.07;;;5.87;;
6386;SDS011;3226;42.162;24.756;2023-03-11T00:17:40;6.67;;;6.37;;
6386;SDS011;3226;42.162;24.756;2023-03-11T00:20:19;7.23;;;6.93;;
6386;SDS011;3226;42.162;24.756;2023-03-11T00:22:48;7.47;;;7.17;;
6386;SDS011;3226;42.162;24.756;2023-03-11T00:25:17;6.57;;;6.28;;
6386;SDS011;3226;42.162;24.756;2023-03-11T00:27:46;6.43;;;6.17;;
6386;SDS011;3226;42.162;24.756;2023-03-11T00:30:17;6.07;;;5.87;;
6386;SDS011;3226;42.162;24.756;2023-03-11T00:32:46;7.30;;;7.00;;
6386;SDS011;3226;42.162;24.756;2023-03-11T00:35:16;7.63;;;7.33;;
6386;SDS011;3226;42.162;24.756;2023-03-11T00:37:46;8.30;;;7.97;;
6386;SDS011;3226;42.162;24.756;2023-03-11T00:40:15;7.30;;;7.00;;
6386;SDS011;3226;42.162;24.756;2023-03-11T00:42:45;7.47;;;7.17;;
6386;SDS011;3226;42.162;24.756;2023-03-11T00:45:13;6.50;;;6.20;;
6386;SDS011;3226;42.162;24.756;2023-03-11T00:47:43;6.83;;;6.53;;
6386;SDS011;3226;42.162;24.756;2023-03-11T00:50:13;8.17;;;7.87;;
6386;SDS011;3226;42.162;24.756;2023-03-11T00:52:43;7.57;;;7.27;;
6386;SDS011;3226;42.162;24.756;2023-03-11T00:55:12;8.23;;;7.93;;
6386;SDS011;3226;42.162;24.756;2023-03-11T00:57:42;6.07;;;5.87;;
6386;SDS011;3226;42.162;24.756;2023-03-11T01:00:12;6.30;;;6.03;;
6386;SDS011;3226;42.162;24.756;2023-03-11T01:02:43;6.77;;;6.47;;
6386;SDS011;3226;42.162;24.756;2023-03-11T01:05:11;6.27;;;6.03;;
6386;SDS011;3226;42.162;24.756;2023-03-11T01:07:40;7.67;;;7.37;;
6386;SDS011;3226;42.162;24.756;2023-03-11T01:10:09;6.90;;;6.60;;
6386;SDS011;3226;42.162;24.756;2023-03-11T01:12:37;5.70;;;5.50;;
6386;SDS011;3226;42.162;24.756;2023-03-11T01:15:06;6.47;;;6.17;;
6386;SDS011;3226;42.162;24.756;2023-03-11T01:17:35;5.67;;;5.47;;
6386;SDS011;3226;42.162;24.756;2023-03-11T01:20:05;6.47;;;6.17;;
6386;SDS011;3226;42.162;24.756;2023-03-11T01:22:35;5.87;;;5.67;;
6386;SDS011;3226;42.162;24.756;2023-03-11T01:25:03;6.80;;;6.50;;
6386;SDS011;3226;42.162;24.756;2023-03-11T01:27:31;6.90;;;6.60;;
6386;SDS011;3226;42.162;24.756;2023-03-11T01:30:00;5.57;;;5.38;;
6386;SDS011;3226;42.162;24.756;2023-03-11T01:32:27;6.40;;;6.17;;
6386;SDS011;3226;42.162;24.756;2023-03-11T01:34:56;6.23;;;6.03;;
6386;SDS011;3226;42.162;24.756;2023-03-11T01:37:25;6.00;;;5.80;;
6386;SDS011;3226;42.162;24.756;2023-03-11T01:39:53;5.90;;;5.70;;
6386;SDS011;3226;42.162;24.756;2023-03-11T01:42:21;5.93;;;5.73;;
6386;SDS011;3226;42.162;24.756;2023-03-11T01:44:49;7.07;;;6.77;;
6386;SDS011;3226;42.162;24.756;2023-03-11T01:47:29;5.87;;;5.67;;
6386;SDS011;3226;42.162;24.756;2023-03-11T01:50:03;6.87;;;6.57;;
6386;SDS011;3226;42.162;24.756;2023-03-11T01:52:36;6.17;;;5.97;;
6386;SDS011;3226;42.162;24.756;2023-03-11T01:55:05;6.47;;;6.17;;
6386;SDS011;3226;42.162;24.756;2023-03-11T01:57:34;6.23;;;6.03;;
6386;SDS011;3226;42.162;24.756;2023-03-11T02:00:05;6.87;;;6.57;;
6386;SDS011;3226;42.162;24.756;2023-03-11T02:02:38;6.87;;;6.57;;
6386;SDS011;3226;42.162;24.756;2023-03-11T02:05:09;6.37;;;6.10;;
6386;SDS011;3226;42.162;24.756;2023-03-11T02:07:38;6.27;;;6.03;;
6386;SDS011;3226;42.162;24.756;2023-03-11T02:10:07;6.77;;;6.47;;
6386;SDS011;3226;42.162;24.756;2023-03-11T02:12:38;6.80;;;6.50;;
6386;SDS011;3226;42.162;24.756;2023-03-11T02:15:08;7.10;;;6.80;;
6386;SDS011;3226;42.162;24.756;2023-03-11T02:17:37;5.97;;;5.77;;
6386;SDS011;3226;42.162;24.756;2023-03-11T02:20:18;5.70;;;5.50;;
6386;SDS011;3226;42.162;24.756;2023-03-11T02:22:55;6.40;;;6.10;;
6386;SDS011;3226;42.162;24.756;2023-03-11T02:25:25;6.73;;;6.43;;
6386;SDS011;3226;42.162;24.756;2023-03-11T02:28:02;5.17;;;4.97;;
6386;SDS011;3226;42.162;24.756;2023-03-11T02:30:34;5.80;;;5.60;;
6386;SDS011;3226;42.162;24.756;2023-03-11T02:33:03;6.33;;;6.07;;
6386;SDS011;3226;42.162;24.756;2023-03-11T02:35:31;6.03;;;5.83;;
6386;SDS011;3226;42.162;24.756;2023-03-11T02:37:59;7.57;;;7.27;;
6386;SDS011;3226;42.162;24.756;2023-03-11T02:43:20;5.97;;;5.77;;
6386;SDS011;3226;42.162;24.756;2023-03-11T02:45:51;6.97;;;6.67;;
6386;SDS011;3226;42.162;24.756;2023-03-11T02:48:20;7.17;;;6.87;;
6386;SDS011;3226;42.162;24.756;2023-03-11T02:50:49;6.03;;;5.83;;
6386;SDS011;3226;42.162;24.756;2023-03-11T02:53:18;6.00;;;5.80;;
6386;SDS011;3226;42.162;24.756;2023-03-11T02:55:46;6.33;;;6.07;;
6386;SDS011;3226;42.162;24.756;2023-03-11T02:58:14;6.07;;;5.87;;
6386;SDS011;3226;42.162;24.756;2023-03-11T03:00:43;5.47;;;5.27;;
6386;SDS011;3226;42.162;24.756;2023-03-11T03:03:11;5.97;;;5.77;;
6386;SDS011;3226;42.162;24.756;2023-03-11T03:05:39;5.50;;;5.30;;
6386;SDS011;3226;42.162;24.756;2023-03-11T03:08:07;5.73;;;5.53;;
6386;SDS011;3226;42.162;24.756;2023-03-11T03:10:35;6.03;;;5.83;;
6386;SDS011;3226;42.162;24.756;2023-03-11T03:13:03;6.20;;;6.00;;
6386;SDS011;3226;42.162;24.756;2023-03-11T03:15:31;6.60;;;6.30;;
6386;SDS011;3226;42.162;24.756;2023-03-11T03:18:00;6.43;;;6.13;;
6386;SDS011;3226;42.162;24.756;2023-03-11T03:20:28;6.43;;;6.13;;
6386;SDS011;3226;42.162;24.756;2023-03-11T03:22:56;6.40;;;6.13;;
6386;SDS011;3226;42.162;24.756;2023-03-11T03:25:24;6.87;;;6.57;;
6386;SDS011;3226;42.162;24.756;2023-03-11T03:27:52;6.63;;;6.33;;
6386;SDS011;3226;42.162;24.756;2023-03-11T03:30:20;5.90;;;5.70;;
6386;SDS011;3226;42.162;24.756;2023-03-11T03:32:48;5.97;;;5.77;;
6386;SDS011;3226;42.162;24.756;2023-03-11T03:35:18;6.03;;;5.83;;
6386;SDS011;3226;42.162;24.756;2023-03-11T03:37:46;5.97;;;5.77;;
6386;SDS011;3226;42.162;24.756;2023-03-11T03:40:14;6.80;;;6.50;;
6386;SDS011;3226;42.162;24.756;2023-03-11T03:42:42;6.77;;;6.47;;
6386;SDS011;3226;42.162;24.756;2023-03-11T03:45:10;6.07;;;5.87;;
6386;SDS011;3226;42.162;24.756;2023-03-11T03:47:38;6.50;;;6.20;;
6386;SDS011;3226;42.162;24.756;2023-03-11T03:50:07;7.73;;;7.43;;
6386;SDS011;3226;42.162;24.756;2023-03-11T03:52:38;6.63;;;6.33;;
6386;SDS011;3226;42.162;24.756;2023-03-11T03:55:06;7.67;;;7.37;;
6386;SDS011;3226;42.162;24.756;2023-03-11T03:57:35;7.27;;;6.97;;
6386;SDS011;3226;42.162;24.756;2023-03-11T04:00:03;5.90;;;5.70;;
6386;SDS011;3226;42.162;24.756;2023-03-11T04:02:34;5.37;;;5.17;;
6386;SDS011;3226;42.162;24.756;2023-03-11T04:05:02;6.13;;;5.93;;
6386;SDS011;3226;42.162;24.756;2023-03-11T04:07:32;6.70;;;6.40;;
6386;SDS011;3226;42.162;24.756;2023-03-11T04:10:02;6.20;;;6.00;;
6386;SDS011;3226;42.162;24.756;2023-03-11T04:12:31;6.90;;;6.60;;
6386;SDS011;3226;42.162;24.756;2023-03-11T04:14:59;5.93;;;5.73;;
6386;SDS011;3226;42.162;24.756;2023-03-11T04:17:27;6.20;;;6.00;;
6386;SDS011;3226;42.162;24.756;2023-03-11T04:19:55;5.80;;;5.60;;
6386;SDS011;3226;42.162;24.756;2023-03-11T04:22:23;7.03;;;6.73;;
6386;SDS011;3226;42.162;24.756;2023-03-11T04:24:51;5.73;;;5.53;;
6386;SDS011;3226;42.162;24.756;2023-03-11T04:27:20;7.53;;;7.23;;
6386;SDS011;3226;42.162;24.756;2023-03-11T04:29:48;6.90;;;6.60;;
6386;SDS011;3226;42.162;24.756;2023-03-11T04:32:16;6.50;;;6.20;;
6386;SDS011;3226;42.162;24.756;2023-03-11T04:34:44;6.67;;;6.37;;
6386;SDS011;3226;42.162;24.756;2023-03-11T04:37:12;6.40;;;6.10;;
6386;SDS011;3226;42.162;24.756;2023-03-11T04:39:40;7.07;;;6.77;;
6386;SDS011;3226;42.162;24.756;2023-03-11T04:42:08;6.10;;;5.90;;
6386;SDS011;3226;42.162;24.756;2023-03-11T04:44:40;5.97;;;5.77;;
6386;SDS011;3226;42.162;24.756;2023-03-11T04:47:08;5.90;;;5.70;;
6386;SDS011;3226;42.162;24.756;2023-03-11T04:49:36;5.90;;;5.70;;
6386;SDS011;3226;42.162;24.756;2023-03-11T04:52:04;6.57;;;6.27;;
6386;SDS011;3226;42.162;24.756;2023-03-11T04:54:32;10.57;;;10.07;;
6386;SDS011;3226;42.162;24.756;2023-03-11T04:57:00;8.27;;;7.93;;
6386;SDS011;3226;42.162;24.756;2023-03-11T04:59:28;8.77;;;8.37;;
6386;SDS011;3226;42.162;24.756;2023-03-11T05:01:58;9.00;;;8.60;;
6386;SDS011;3226;42.162;24.756;2023-03-11T05:04:25;9.33;;;8.93;;
6386;SDS011;3226;42.162;24.756;2023-03-11T05:06:53;7.07;;;6.77;;
6386;SDS011;3226;42.162;24.756;2023-03-11T05:09:21;7.20;;;6.90;;
6386;SDS011;3226;42.162;24.756;2023-03-11T05:11:49;6.77;;;6.47;;
6386;SDS011;3226;42.162;24.756;2023-03-11T05:14:17;6.60;;;6.30;;
6386;SDS011;3226;42.162;24.756;2023-03-11T05:16:45;6.47;;;6.17;;
6386;SDS011;3226;42.162;24.756;2023-03-11T05:19:15;6.03;;;5.83;;
6386;SDS011;3226;42.162;24.756;2023-03-11T05:22:00;6.17;;;5.97;;
6386;SDS011;3226;42.162;24.756;2023-03-11T05:24:29;5.93;;;5.73;;
6386;SDS011;3226;42.162;24.756;2023-03-11T05:26:57;6.13;;;5.93;;
6386;SDS011;3226;42.162;24.756;2023-03-11T05:29:26;6.10;;;5.90;;
6386;SDS011;3226;42.162;24.756;2023-03-11T05:31:54;5.97;;;5.77;;
6386;SDS011;3226;42.162;24.756;2023-03-11T05:34:24;5.90;;;5.70;;
6386;SDS011;3226;42.162;24.756;2023-03-11T05:36:52;6.60;;;6.30;;
6386;SDS011;3226;42.162;24.756;2023-03-11T05:39:20;6.47;;;6.17;;
6386;SDS011;3226;42.162;24.756;2023-03-11T05:41:48;6.07;;;5.87;;
6386;SDS011;3226;42.162;24.756;2023-03-11T05:44:16;6.60;;;6.30;;
6386;SDS011;3226;42.162;24.756;2023-03-11T05:46:43;6.83;;;6.53;;
6386;SDS011;3226;42.162;24.756;2023-03-11T05:49:11;5.80;;;5.60;;
6386;SDS011;3226;42.162;24.756;2023-03-11T05:51:41;5.73;;;5.53;;
6386;SDS011;3226;42.162;24.756;2023-03-11T05:54:09;6.80;;;6.50;;
6386;SDS011;3226;42.162;24.756;2023-03-11T05:56:40;6.23;;;5.97;;
6386;SDS011;3226;42.162;24.756;2023-03-11T05:59:09;5.77;;;5.57;;
6386;SDS011;3226;42.162;24.756;2023-03-11T06:01:41;5.83;;;5.63;;
6386;SDS011;3226;42.162;24.756;2023-03-11T06:04:10;5.33;;;5.13;;
6386;SDS011;3226;42.162;24.756;2023-03-11T06:06:38;6.03;;;5.83;;
6386;SDS011;3226;42.162;24.756;2023-03-11T06:09:10;7.23;;;6.93;;
6386;SDS011;3226;42.162;24.756;2023-03-11T06:11:39;5.90;;;5.70;;
6386;SDS011;3226;42.162;24.756;2023-03-11T06:14:09;5.90;;;5.70;;
6386;SDS011;3226;42.162;24.756;2023-03-11T06:16:38;5.37;;;5.17;;
6386;SDS011;3226;42.162;24.756;2023-03-11T06:19:07;6.33;;;6.07;;
6386;SDS011;3226;42.162;24.756;2023-03-11T06:21:35;7.00;;;6.70;;
6386;SDS011;3226;42.162;24.756;2023-03-11T06:24:05;5.70;;;5.50;;
6386;SDS011;3226;42.162;24.756;2023-03-11T06:26:33;5.67;;;5.47;;
6386;SDS011;3226;42.162;24.756;2023-03-11T06:29:01;5.90;;;5.70;;
6386;SDS011;3226;42.162;24.756;2023-03-11T06:31:29;6.07;;;5.87;;
6386;SDS011;3226;42.162;24.756;2023-03-11T06:33:57;5.93;;;5.73;;
6386;SDS011;3226;42.162;24.756;2023-03-11T06:36:25;6.53;;;6.23;;
6386;SDS011;3226;42.162;24.756;2023-03-11T06:38:53;7.33;;;7.03;;
6386;SDS011;3226;42.162;24.756;2023-03-11T06:41:23;6.00;;;5.80;;
6386;SDS011;3226;42.162;24.756;2023-03-11T06:43:51;7.73;;;7.43;;
6386;SDS011;3226;42.162;24.756;2023-03-11T06:46:20;5.47;;;5.27;;
6386;SDS011;3226;42.162;24.756;2023-03-11T06:48:49;6.97;;;6.67;;
6386;SDS011;3226;42.162;24.756;2023-03-11T06:51:18;5.77;;;5.57;;
6386;SDS011;3226;42.162;24.756;2023-03-11T06:53:47;5.73;;;5.53;;
6386;SDS011;3226;42.162;24.756;2023-03-11T06:56:17;6.37;;;6.10;;
6386;SDS011;3226;42.162;24.756;2023-03-11T06:58:47;7.43;;;7.13;;
6386;SDS011;3226;42.162;24.756;2023-03-11T07:01:16;6.77;;;6.47;;
6386;SDS011;3226;42.162;24.756;2023-03-11T07:03:45;5.47;;;5.27;;
6386;SDS011;3226;42.162;24.756;2023-03-11T07:06:14;6.63;;;6.33;;
6386;SDS011;3226;42.162;24.756;2023-03-11T07:08:45;8.90;;;8.50;;
6386;SDS011;3226;42.162;24.756;2023-03-11T07:11:14;5.77;;;5.57;;
6386;SDS011;3226;42.162;24.756;2023-03-11T07:13:44;6.63;;;6.33;;
6386;SDS011;3226;42.162;24.756;2023-03-11T07:16:15;6.87;;;6.57;;
6386;SDS011;3226;42.162;24.756;2023-03-11T07:18:45;6.17;;;5.97;;
6386;SDS011;3226;42.162;24.756;2023-03-11T07:21:14;6.50;;;6.20;;
6386;SDS011;3226;42.162;24.756;2023-03-11T07:23:44;5.70;;;5.50;;
6386;SDS011;3226;42.162;24.756;2023-03-11T07:26:13;6.97;;;6.57;;
6386;SDS011;3226;42.162;24.756;2023-03-11T07:28:43;7.10;;;6.80;;
6386;SDS011;3226;42.162;24.756;2023-03-11T07:31:11;5.83;;;5.63;;
6386;SDS011;3226;42.162;24.756;2023-03-11T07:33:43;6.50;;;6.20;;
6386;SDS011;3226;42.162;24.756;2023-03-11T07:36:13;5.93;;;5.73;;
6386;SDS011;3226;42.162;24.756;2023-03-11T07:38:42;6.73;;;6.43;;
6386;SDS011;3226;42.162;24.756;2023-03-11T07:41:11;5.93;;;5.73;;
6386;SDS011;3226;42.162;24.756;2023-03-11T07:43:41;7.10;;;6.80;;
6386;SDS011;3226;42.162;24.756;2023-03-11T07:46:10;7.07;;;6.77;;
6386;SDS011;3226;42.162;24.756;2023-03-11T07:48:41;6.40;;;6.10;;
6386;SDS011;3226;42.162;24.756;2023-03-11T07:51:12;6.13;;;5.93;;
6386;SDS011;3226;42.162;24.756;2023-03-11T07:53:42;6.47;;;6.17;;
6386;SDS011;3226;42.162;24.756;2023-03-11T07:56:11;7.57;;;7.27;;
6386;SDS011;3226;42.162;24.756;2023-03-11T07:58:40;6.87;;;6.57;;
6386;SDS011;3226;42.162;24.756;2023-03-11T08:01:11;7.10;;;6.80;;
6386;SDS011;3226;42.162;24.756;2023-03-11T08:03:42;7.53;;;7.23;;
6386;SDS011;3226;42.162;24.756;2023-03-11T08:06:12;6.20;;;6.00;;
6386;SDS011;3226;42.162;24.756;2023-03-11T08:08:41;7.33;;;7.03;;
6386;SDS011;3226;42.162;24.756;2023-03-11T08:11:10;7.20;;;6.90;;
6386;SDS011;3226;42.162;24.756;2023-03-11T08:13:39;7.77;;;7.47;;
6386;SDS011;3226;42.162;24.756;2023-03-11T08:16:08;6.70;;;6.40;;
6386;SDS011;3226;42.162;24.756;2023-03-11T08:18:37;7.47;;;7.17;;
6386;SDS011;3226;42.162;24.756;2023-03-11T08:21:08;7.33;;;7.03;;
6386;SDS011;3226;42.162;24.756;2023-03-11T08:23:38;7.23;;;6.93;;
6386;SDS011;3226;42.162;24.756;2023-03-11T08:26:07;7.07;;;6.77;;
6386;SDS011;3226;42.162;24.756;2023-03-11T08:28:36;7.80;;;7.50;;
6386;SDS011;3226;42.162;24.756;2023-03-11T08:31:10;6.90;;;6.60;;
6386;SDS011;3226;42.162;24.756;2023-03-11T08:33:39;6.87;;;6.57;;
6386;SDS011;3226;42.162;24.756;2023-03-11T08:36:09;7.83;;;7.53;;
6386;SDS011;3226;42.162;24.756;2023-03-11T08:38:37;7.70;;;7.40;;
6386;SDS011;3226;42.162;24.756;2023-03-11T08:41:05;7.63;;;7.33;;
6386;SDS011;3226;42.162;24.756;2023-03-11T08:43:34;8.33;;;7.93;;
6386;SDS011;3226;42.162;24.756;2023-03-11T08:46:02;7.57;;;7.27;;
6386;SDS011;3226;42.162;24.756;2023-03-11T08:48:33;7.27;;;6.97;;
6386;SDS011;3226;42.162;24.756;2023-03-11T08:51:07;7.67;;;7.37;;
6386;SDS011;3226;42.162;24.756;2023-03-11T08:53:37;7.73;;;7.43;;
6386;SDS011;3226;42.162;24.756;2023-03-11T08:56:06;7.63;;;7.33;;
6386;SDS011;3226;42.162;24.756;2023-03-11T08:58:35;7.83;;;7.53;;
6386;SDS011;3226;42.162;24.756;2023-03-11T09:01:03;7.93;;;7.63;;
6386;SDS011;3226;42.162;24.756;2023-03-11T09:03:32;7.47;;;7.17;;
6386;SDS011;3226;42.162;24.756;2023-03-11T09:06:01;7.63;;;7.33;;
6386;SDS011;3226;42.162;24.756;2023-03-11T09:08:31;7.83;;;7.53;;
6386;SDS011;3226;42.162;24.756;2023-03-11T09:11:00;8.20;;;7.87;;
6386;SDS011;3226;42.162;24.756;2023-03-11T09:13:28;8.30;;;7.93;;
6386;SDS011;3226;42.162;24.756;2023-03-11T09:15:56;8.87;;;8.47;;
6386;SDS011;3226;42.162;24.756;2023-03-11T09:18:24;8.10;;;7.80;;
6386;SDS011;3226;42.162;24.756;2023-03-11T09:20:52;8.53;;;8.13;;
6386;SDS011;3226;42.162;24.756;2023-03-11T09:23:23;8.20;;;7.90;;
6386;SDS011;3226;42.162;24.756;2023-03-11T09:25:53;7.83;;;7.53;;
6386;SDS011;3226;42.162;24.756;2023-03-11T09:28:20;7.83;;;7.53;;
6386;SDS011;3226;42.162;24.756;2023-03-11T09:30:48;8.10;;;7.80;;
6386;SDS011;3226;42.162;24.756;2023-03-11T09:33:17;7.37;;;7.07;;
6386;SDS011;3226;42.162;24.756;2023-03-11T09:35:45;8.00;;;7.70;;
6386;SDS011;3226;42.162;24.756;2023-03-11T09:38:13;7.80;;;7.50;;
6386;SDS011;3226;42.162;24.756;2023-03-11T09:40:45;7.73;;;7.43;;
6386;SDS011;3226;42.162;24.756;2023-03-11T09:43:27;8.43;;;8.03;;
6386;SDS011;3226;42.162;24.756;2023-03-11T09:46:06;7.77;;;7.47;;
6386;SDS011;3226;42.162;24.756;2023-03-11T09:48:53;8.50;;;8.10;;
6386;SDS011;3226;42.162;24.756;2023-03-11T09:51:29;8.10;;;7.80;;
6386;SDS011;3226;42.162;24.756;2023-03-11T09:54:03;7.60;;;7.30;;
6386;SDS011;3226;42.162;24.756;2023-03-11T09:56:33;8.20;;;7.90;;
6386;SDS011;3226;42.162;24.756;2023-03-11T09:59:05;7.63;;;7.33;;
6386;SDS011;3226;42.162;24.756;2023-03-11T10:01:36;7.37;;;7.07;;
6386;SDS011;3226;42.162;24.756;2023-03-11T10:04:10;7.67;;;7.37;;
6386;SDS011;3226;42.162;24.756;2023-03-11T10:06:43;7.93;;;7.63;;
6386;SDS011;3226;42.162;24.756;2023-03-11T10:09:20;7.47;;;7.17;;
6386;SDS011;3226;42.162;24.756;2023-03-11T10:12:00;7.70;;;7.40;;
6386;SDS011;3226;42.162;24.756;2023-03-11T10:14:38;7.43;;;7.13;;
6386;SDS011;3226;42.162;24.756;2023-03-11T10:17:18;7.33;;;7.03;;
6386;SDS011;3226;42.162;24.756;2023-03-11T10:20:02;7.70;;;7.40;;
6386;SDS011;3226;42.162;24.756;2023-03-11T10:22:39;7.70;;;7.40;;
6386;SDS011;3226;42.162;24.756;2023-03-11T10:25:13;7.47;;;7.17;;
6386;SDS011;3226;42.162;24.756;2023-03-11T10:27:43;7.67;;;7.37;;
6386;SDS011;3226;42.162;24.756;2023-03-11T10:30:22;7.73;;;7.43;;
6386;SDS011;3226;42.162;24.756;2023-03-11T10:32:54;8.60;;;8.20;;
6386;SDS011;3226;42.162;24.756;2023-03-11T10:35:27;7.67;;;7.37;;
6386;SDS011;3226;42.162;24.756;2023-03-11T10:38:02;7.77;;;7.47;;
6386;SDS011;3226;42.162;24.756;2023-03-11T10:40:36;8.43;;;8.03;;
6386;SDS011;3226;42.162;24.756;2023-03-11T10:43:09;7.90;;;7.60;;
6386;SDS011;3226;42.162;24.756;2023-03-11T10:45:41;8.20;;;7.90;;
6386;SDS011;3226;42.162;24.756;2023-03-11T10:48:12;8.67;;;8.27;;
6386;SDS011;3226;42.162;24.756;2023-03-11T10:50:43;8.10;;;7.80;;
6386;SDS011;3226;42.162;24.756;2023-03-11T10:53:16;7.20;;;6.90;;
6386;SDS011;3226;42.162;24.756;2023-03-11T10:55:47;6.83;;;6.53;;
6386;SDS011;3226;42.162;24.756;2023-03-11T10:58:17;8.07;;;7.77;;
6386;SDS011;3226;42.162;24.756;2023-03-11T11:00:59;7.13;;;6.83;;
6386;SDS011;3226;42.162;24.756;2023-03-11T11:03:29;8.47;;;8.07;;
6386;SDS011;3226;42.162;24.756;2023-03-11T11:05:58;7.23;;;6.93;;
6386;SDS011;3226;42.162;24.756;2023-03-11T11:08:28;7.50;;;7.20;;
6386;SDS011;3226;42.162;24.756;2023-03-11T11:10:57;9.43;;;9.03;;
6386;SDS011;3226;42.162;24.756;2023-03-11T11:13:27;7.77;;;7.47;;
6386;SDS011;3226;42.162;24.756;2023-03-11T11:15:59;7.97;;;7.67;;
6386;SDS011;3226;42.162;24.756;2023-03-11T11:18:30;7.33;;;7.03;;
6386;SDS011;3226;42.162;24.756;2023-03-11T11:21:01;7.13;;;6.83;;
6386;SDS011;3226;42.162;24.756;2023-03-11T11:23:33;7.27;;;6.97;;
6386;SDS011;3226;42.162;24.756;2023-03-11T11:26:06;7.67;;;7.37;;
6386;SDS011;3226;42.162;24.756;2023-03-11T11:28:51;7.53;;;7.23;;
6386;SDS011;3226;42.162;24.756;2023-03-11T11:31:36;7.47;;;7.17;;
6386;SDS011;3226;42.162;24.756;2023-03-11T11:34:13;8.00;;;7.70;;
6386;SDS011;3226;42.162;24.756;2023-03-11T11:36:53;8.23;;;7.93;;
6386;SDS011;3226;42.162;24.756;2023-03-11T11:39:24;7.70;;;7.40;;
6386;SDS011;3226;42.162;24.756;2023-03-11T11:41:54;8.13;;;7.83;;
6386;SDS011;3226;42.162;24.756;2023-03-11T11:44:25;7.60;;;7.30;;
6386;SDS011;3226;42.162;24.756;2023-03-11T11:47:01;7.10;;;6.80;;
6386;SDS011;3226;42.162;24.756;2023-03-11T11:49:35;7.83;;;7.53;;
6386;SDS011;3226;42.162;24.756;2023-03-11T11:52:05;7.70;;;7.40;;
6386;SDS011;3226;42.162;24.756;2023-03-11T11:54:36;7.13;;;6.83;;
6386;SDS011;3226;42.162;24.756;2023-03-11T11:57:09;7.13;;;6.83;;
6386;SDS011;3226;42.162;24.756;2023-03-11T11:59:38;7.80;;;7.50;;
6386;SDS011;3226;42.162;24.756;2023-03-11T12:02:15;8.13;;;7.83;;
6386;SDS011;3226;42.162;24.756;2023-03-11T12:04:53;7.60;;;7.30;;
6386;SDS011;3226;42.162;24.756;2023-03-11T12:07:32;6.77;;;6.47;;
6386;SDS011;3226;42.162;24.756;2023-03-11T12:10:21;8.10;;;7.80;;
6386;SDS011;3226;42.162;24.756;2023-03-11T12:13:09;7.40;;;7.10;;
6386;SDS011;3226;42.162;24.756;2023-03-11T12:15:48;7.47;;;7.17;;
6386;SDS011;3226;42.162;24.756;2023-03-11T12:18:27;7.93;;;7.63;;
6386;SDS011;3226;42.162;24.756;2023-03-11T12:21:00;7.77;;;7.47;;
6386;SDS011;3226;42.162;24.756;2023-03-11T12:23:39;7.50;;;7.20;;
6386;SDS011;3226;42.162;24.756;2023-03-11T12:26:15;7.13;;;6.83;;
6386;SDS011;3226;42.162;24.756;2023-03-11T12:28:47;7.50;;;7.20;;
6386;SDS011;3226;42.162;24.756;2023-03-11T12:31:21;7.50;;;7.20;;
6386;SDS011;3226;42.162;24.756;2023-03-11T12:33:55;7.43;;;7.13;;
6386;SDS011;3226;42.162;24.756;2023-03-11T12:36:28;8.00;;;7.70;;
6386;SDS011;3226;42.162;24.756;2023-03-11T12:38:57;7.10;;;6.80;;
6386;SDS011;3226;42.162;24.756;2023-03-11T12:41:31;7.67;;;7.37;;
6386;SDS011;3226;42.162;24.756;2023-03-11T12:44:10;6.67;;;6.37;;
6386;SDS011;3226;42.162;24.756;2023-03-11T12:47:01;6.23;;;6.03;;
6386;SDS011;3226;42.162;24.756;2023-03-11T12:49:45;6.93;;;6.63;;
6386;SDS011;3226;42.162;24.756;2023-03-11T12:52:19;7.53;;;7.23;;
6386;SDS011;3226;42.162;24.756;2023-03-11T12:57:58;7.67;;;7.37;;
6386;SDS011;3226;42.162;24.756;2023-03-11T13:00:51;6.17;;;5.97;;
6386;SDS011;3226;42.162;24.756;2023-03-11T13:03:42;7.37;;;7.07;;
6386;SDS011;3226;42.162;24.756;2023-03-11T13:06:28;7.67;;;7.37;;
6386;SDS011;3226;42.162;24.756;2023-03-11T13:09:14;7.53;;;7.23;;
6386;SDS011;3226;42.162;24.756;2023-03-11T13:11:44;6.80;;;6.50;;
6386;SDS011;3226;42.162;24.756;2023-03-11T13:14:20;7.40;;;7.10;;
6386;SDS011;3226;42.162;24.756;2023-03-11T13:16:53;7.40;;;7.10;;
6386;SDS011;3226;42.162;24.756;2023-03-11T13:25:32;9.37;;;8.97;;
6386;SDS011;3226;42.162;24.756;2023-03-11T13:31:22;7.97;;;7.67;;
6386;SDS011;3226;42.162;24.756;2023-03-11T13:34:09;7.23;;;6.93;;
6386;SDS011;3226;42.162;24.756;2023-03-11T13:36:54;7.50;;;7.20;;
6386;SDS011;3226;42.162;24.756;2023-03-11T13:39:38;7.73;;;7.43;;
6386;SDS011;3226;42.162;24.756;2023-03-11T13:42:20;7.80;;;7.50;;
6386;SDS011;3226;42.162;24.756;2023-03-11T13:44:54;8.20;;;7.90;;
6386;SDS011;3226;42.162;24.756;2023-03-11T13:47:23;7.17;;;6.87;;
6386;SDS011;3226;42.162;24.756;2023-03-11T13:49:53;7.43;;;7.13;;
6386;SDS011;3226;42.162;24.756;2023-03-11T13:52:29;7.43;;;7.13;;
6386;SDS011;3226;42.162;24.756;2023-03-11T13:55:00;7.17;;;6.87;;
6386;SDS011;3226;42.162;24.756;2023-03-11T13:57:33;7.30;;;7.00;;
6386;SDS011;3226;42.162;24.756;2023-03-11T14:00:05;7.47;;;7.17;;
6386;SDS011;3226;42.162;24.756;2023-03-11T14:02:42;7.53;;;7.23;;
6386;SDS011;3226;42.162;24.756;2023-03-11T14:05:14;7.77;;;7.47;;
6386;SDS011;3226;42.162;24.756;2023-03-11T14:07:44;8.40;;;8.03;;
6386;SDS011;3226;42.162;24.756;2023-03-11T14:10:25;7.73;;;7.43;;
6386;SDS011;3226;42.162;24.756;2023-03-11T14:13:06;7.87;;;7.57;;
6386;SDS011;3226;42.162;24.756;2023-03-11T14:15:44;8.17;;;7.87;;
6386;SDS011;3226;42.162;24.756;2023-03-11T14:18:28;7.73;;;7.43;;
6386;SDS011;3226;42.162;24.756;2023-03-11T14:20:59;8.10;;;7.80;;
6386;SDS011;3226;42.162;24.756;2023-03-11T14:23:29;8.30;;;8.00;;
6386;SDS011;3226;42.162;24.756;2023-03-11T14:26:00;8.10;;;7.80;;
6386;SDS011;3226;42.162;24.756;2023-03-11T14:28:33;8.60;;;8.20;;
6386;SDS011;3226;42.162;24.756;2023-03-11T14:31:04;7.77;;;7.47;;
6386;SDS011;3226;42.162;24.756;2023-03-11T14:33:32;7.60;;;7.30;;
6386;SDS011;3226;42.162;24.756;2023-03-11T14:36:02;8.03;;;7.73;;
6386;SDS011;3226;42.162;24.756;2023-03-11T14:38:33;8.03;;;7.73;;
6386;SDS011;3226;42.162;24.756;2023-03-11T14:41:01;7.37;;;7.07;;
6386;SDS011;3226;42.162;24.756;2023-03-11T14:43:34;8.07;;;7.77;;
6386;SDS011;3226;42.162;24.756;2023-03-11T14:46:06;9.80;;;9.40;;
6386;SDS011;3226;42.162;24.756;2023-03-11T14:48:38;8.67;;;8.27;;
6386;SDS011;3226;42.162;24.756;2023-03-11T14:51:10;8.70;;;8.30;;
6386;SDS011;3226;42.162;24.756;2023-03-11T14:53:43;7.50;;;7.20;;
6386;SDS011;3226;42.162;24.756;2023-03-11T14:56:17;8.00;;;7.70;;
6386;SDS011;3226;42.162;24.756;2023-03-11T14:58:50;7.70;;;7.40;;
6386;SDS011;3226;42.162;24.756;2023-03-11T15:01:34;7.90;;;7.60;;
6386;SDS011;3226;42.162;24.756;2023-03-11T15:04:07;7.43;;;7.13;;
6386;SDS011;3226;42.162;24.756;2023-03-11T15:06:40;7.27;;;6.97;;
6386;SDS011;3226;42.162;24.756;2023-03-11T15:09:10;7.70;;;7.40;;
6386;SDS011;3226;42.162;24.756;2023-03-11T15:11:43;7.43;;;7.13;;
6386;SDS011;3226;42.162;24.756;2023-03-11T15:14:18;8.10;;;7.80;;
6386;SDS011;3226;42.162;24.756;2023-03-11T15:16:48;7.40;;;7.10;;
6386;SDS011;3226;42.162;24.756;2023-03-11T15:19:21;7.37;;;7.07;;
6386;SDS011;3226;42.162;24.756;2023-03-11T15:21:50;7.23;;;6.93;;
6386;SDS011;3226;42.162;24.756;2023-03-11T15:24:21;7.23;;;6.93;;
6386;SDS011;3226;42.162;24.756;2023-03-11T15:26:53;7.00;;;6.70;;
6386;SDS011;3226;42.162;24.756;2023-03-11T15:29:24;7.17;;;6.87;;
6386;SDS011;3226;42.162;24.756;2023-03-11T15:31:53;6.60;;;6.30;;
6386;SDS011;3226;42.162;24.756;2023-03-11T15:34:23;6.47;;;6.17;;
6386;SDS011;3226;42.162;24.756;2023-03-11T15:36:58;6.83;;;6.53;;
6386;SDS011;3226;42.162;24.756;2023-03-11T15:39:39;6.90;;;6.60;;